sensor_id;sensor_type;location;lat;lon;timestamp;temperature;humidity
18894;DHT22;9579;49.488;8.226;2024-02-14T00:01:20;8.00;99.90
18894;DHT22;9579;49.488;8.226;2024-02-14T00:04:08;8.00;99.90
18894;DHT22;9579;49.488;8.226;2024-02-14T00:09:35;8.10;99.90
18894;DHT22;9579;49.488;8.226;2024-02-14T00:12:26;8.20;99.90
18894;DHT22;9579;49.488;8.226;2024-02-14T00:20:26;8.20;99.90
18894;DHT22;9579;49.488;8.226;2024-02-14T00:23:16;7.60;99.90
18894;DHT22;9579;49.488;8.226;2024-02-14T00:26:06;6.70;99.90
18894;DHT22;9579;49.488;8.226;2024-02-14T00:29:09;8.90;99.90
18894;DHT22;9579;49.488;8.226;2024-02-14T00:32:15;8.60;99.90
18894;DHT22;9579;49.488;8.226;2024-02-14T00:40:29;8.40;99.90
18894;DHT22;9579;49.488;8.226;2024-02-14T00:46:08;8.60;99.90
18894;DHT22;9579;49.488;8.226;2024-02-14T00:49:04;8.50;99.90
18894;DHT22;9579;49.488;8.226;2024-02-14T00:54:32;8.60;99.90
18894;DHT22;9579;49.488;8.226;2024-02-14T00:57:22;7.30;99.90
18894;DHT22;9579;49.488;8.226;2024-02-14T01:00:12;8.50;99.90
18894;DHT22;9579;49.488;8.226;2024-02-14T01:03:08;8.80;99.90
18894;DHT22;9579;49.488;8.226;2024-02-14T01:08:46;8.50;99.90
18894;DHT22;9579;49.488;8.226;2024-02-14T01:11:50;8.50;99.90
18894;DHT22;9579;49.488;8.226;2024-02-14T01:14:44;8.40;99.90
18894;DHT22;9579;49.488;8.226;2024-02-14T01:17:55;7.80;99.90
18894;DHT22;9579;49.488;8.226;2024-02-14T01:31:57;7.50;99.90
18894;DHT22;9579;49.488;8.226;2024-02-14T01:34:44;9.20;99.90
18894;DHT22;9579;49.488;8.226;2024-02-14T01:37:31;9.60;99.90
18894;DHT22;9579;49.488;8.226;2024-02-14T01:40:19;8.20;99.90
18894;DHT22;9579;49.488;8.226;2024-02-14T01:43:06;8.30;99.90
18894;DHT22;9579;49.488;8.226;2024-02-14T01:45:54;9.00;99.90
18894;DHT22;9579;49.488;8.226;2024-02-14T01:48:43;8.10;99.90
18894;DHT22;9579;49.488;8.226;2024-02-14T01:51:31;8.20;99.90
18894;DHT22;9579;49.488;8.226;2024-02-14T01:54:18;8.20;99.90
18894;DHT22;9579;49.488;8.226;2024-02-14T01:57:06;8.50;99.90
18894;DHT22;9579;49.488;8.226;2024-02-14T01:59:56;8.90;99.90
18894;DHT22;9579;49.488;8.226;2024-02-14T02:02:45;8.10;99.90
18894;DHT22;9579;49.488;8.226;2024-02-14T02:05:34;8.20;99.90
18894;DHT22;9579;49.488;8.226;2024-02-14T02:08:22;8.20;99.90
18894;DHT22;9579;49.488;8.226;2024-02-14T02:11:09;8.00;99.90
18894;DHT22;9579;49.488;8.226;2024-02-14T02:13:57;8.40;99.90
18894;DHT22;9579;49.488;8.226;2024-02-14T02:16:44;8.20;99.90
18894;DHT22;9579;49.488;8.226;2024-02-14T02:19:32;7.90;99.90
18894;DHT22;9579;49.488;8.226;2024-02-14T02:22:21;8.30;99.90
18894;DHT22;9579;49.488;8.226;2024-02-14T02:25:10;8.90;99.90
18894;DHT22;9579;49.488;8.226;2024-02-14T02:27:58;7.10;99.90
18894;DHT22;9579;49.488;8.226;2024-02-14T02:30:45;8.00;99.90
18894;DHT22;9579;49.488;8.226;2024-02-14T02:33:33;8.00;99.90
18894;DHT22;9579;49.488;8.226;2024-02-14T02:36:20;8.20;99.90
18894;DHT22;9579;49.488;8.226;2024-02-14T02:39:11;9.70;99.90
18894;DHT22;9579;49.488;8.226;2024-02-14T02:42:00;7.90;99.90
18894;DHT22;9579;49.488;8.226;2024-02-14T02:44:49;8.30;99.90
18894;DHT22;9579;49.488;8.226;2024-02-14T02:47:36;8.70;99.90
18894;DHT22;9579;49.488;8.226;2024-02-14T02:50:24;8.60;99.90
18894;DHT22;9579;49.488;8.226;2024-02-14T02:53:11;7.80;99.90
18894;DHT22;9579;49.488;8.226;2024-02-14T02:55:59;8.70;99.90
18894;DHT22;9579;49.488;8.226;2024-02-14T02:58:48;7.90;99.90
18894;DHT22;9579;49.488;8.226;2024-02-14T03:01:36;9.80;99.90
18894;DHT22;9579;49.488;8.226;2024-02-14T03:04:24;9.20;99.90
18894;DHT22;9579;49.488;8.226;2024-02-14T03:07:11;9.30;99.90
18894;DHT22;9579;49.488;8.226;2024-02-14T03:09:59;8.00;99.90
18894;DHT22;9579;49.488;8.226;2024-02-14T03:12:47;7.80;99.90
18894;DHT22;9579;49.488;8.226;2024-02-14T03:15:36;7.80;99.90
18894;DHT22;9579;49.488;8.226;2024-02-14T03:18:26;8.70;99.90
18894;DHT22;9579;49.488;8.226;2024-02-14T03:21:13;7.90;99.90
18894;DHT22;9579;49.488;8.226;2024-02-14T03:24:01;8.70;99.90
18894;DHT22;9579;49.488;8.226;2024-02-14T03:26:50;7.90;99.90
18894;DHT22;9579;49.488;8.226;2024-02-14T03:29:39;7.60;99.90
18894;DHT22;9579;49.488;8.226;2024-02-14T03:32:40;8.30;99.90
18894;DHT22;9579;49.488;8.226;2024-02-14T03:35:29;8.00;99.90
18894;DHT22;9579;49.488;8.226;2024-02-14T03:38:26;7.90;99.90
18894;DHT22;9579;49.488;8.226;2024-02-14T03:41:20;6.90;99.90
18894;DHT22;9579;49.488;8.226;2024-02-14T03:59:37;8.50;99.90
18894;DHT22;9579;49.488;8.226;2024-02-14T04:02:26;9.40;99.90
18894;DHT22;9579;49.488;8.226;2024-02-14T04:05:14;8.30;99.90
18894;DHT22;9579;49.488;8.226;2024-02-14T04:08:03;8.80;99.90
18894;DHT22;9579;49.488;8.226;2024-02-14T04:10:52;8.50;99.90
18894;DHT22;9579;49.488;8.226;2024-02-14T04:13:43;7.70;99.90
18894;DHT22;9579;49.488;8.226;2024-02-14T04:16:32;7.20;99.90
18894;DHT22;9579;49.488;8.226;2024-02-14T04:19:29;8.20;99.90
18894;DHT22;9579;49.488;8.226;2024-02-14T04:22:15;8.60;99.90
18894;DHT22;9579;49.488;8.226;2024-02-14T04:25:02;8.90;99.90
18894;DHT22;9579;49.488;8.226;2024-02-14T04:27:50;8.80;99.90
18894;DHT22;9579;49.488;8.226;2024-02-14T04:30:37;8.80;99.90
18894;DHT22;9579;49.488;8.226;2024-02-14T04:33:26;8.80;99.90
18894;DHT22;9579;49.488;8.226;2024-02-14T04:36:20;9.60;99.90
18894;DHT22;9579;49.488;8.226;2024-02-14T04:39:11;8.90;99.90
18894;DHT22;9579;49.488;8.226;2024-02-14T04:41:59;10.10;99.90
18894;DHT22;9579;49.488;8.226;2024-02-14T04:44:47;9.20;99.90
18894;DHT22;9579;49.488;8.226;2024-02-14T04:47:35;9.00;99.90
18894;DHT22;9579;49.488;8.226;2024-02-14T04:50:24;10.40;99.90
18894;DHT22;9579;49.488;8.226;2024-02-14T04:53:12;9.30;99.90
18894;DHT22;9579;49.488;8.226;2024-02-14T04:56:00;9.20;99.90
18894;DHT22;9579;49.488;8.226;2024-02-14T04:58:47;9.40;99.90
18894;DHT22;9579;49.488;8.226;2024-02-14T05:01:35;9.60;99.90
18894;DHT22;9579;49.488;8.226;2024-02-14T05:04:24;8.40;99.90
18894;DHT22;9579;49.488;8.226;2024-02-14T05:07:17;9.20;99.90
18894;DHT22;9579;49.488;8.226;2024-02-14T05:10:06;8.00;99.90
18894;DHT22;9579;49.488;8.226;2024-02-14T05:12:54;9.30;99.90
18894;DHT22;9579;49.488;8.226;2024-02-14T05:15:41;8.90;99.90
18894;DHT22;9579;49.488;8.226;2024-02-14T05:18:29;9.20;99.90
18894;DHT22;9579;49.488;8.226;2024-02-14T05:21:20;9.40;99.90
18894;DHT22;9579;49.488;8.226;2024-02-14T05:24:09;9.70;99.90
18894;DHT22;9579;49.488;8.226;2024-02-14T05:26:57;8.80;99.90
18894;DHT22;9579;49.488;8.226;2024-02-14T05:29:44;10.00;99.90
18894;DHT22;9579;49.488;8.226;2024-02-14T05:32:32;9.20;99.90
18894;DHT22;9579;49.488;8.226;2024-02-14T05:35:22;9.20;99.90
18894;DHT22;9579;49.488;8.226;2024-02-14T05:38:10;9.10;99.90
18894;DHT22;9579;49.488;8.226;2024-02-14T05:41:00;9.10;99.90
18894;DHT22;9579;49.488;8.226;2024-02-14T05:43:47;9.80;99.90
18894;DHT22;9579;49.488;8.226;2024-02-14T05:46:35;9.40;99.90
18894;DHT22;9579;49.488;8.226;2024-02-14T05:49:23;9.30;99.90
18894;DHT22;9579;49.488;8.226;2024-02-14T05:52:11;9.60;99.90
18894;DHT22;9579;49.488;8.226;2024-02-14T05:55:01;10.50;99.90
18894;DHT22;9579;49.488;8.226;2024-02-14T05:57:51;11.10;99.90
18894;DHT22;9579;49.488;8.226;2024-02-14T06:00:39;10.60;99.90
18894;DHT22;9579;49.488;8.226;2024-02-14T06:03:26;10.70;99.90
18894;DHT22;9579;49.488;8.226;2024-02-14T06:06:14;9.60;99.90
18894;DHT22;9579;49.488;8.226;2024-02-14T06:09:02;9.40;99.90
18894;DHT22;9579;49.488;8.226;2024-02-14T06:11:55;8.70;99.90
18894;DHT22;9579;49.488;8.226;2024-02-14T06:14:50;10.60;99.90
18894;DHT22;9579;49.488;8.226;2024-02-14T06:17:41;10.00;99.90
18894;DHT22;9579;49.488;8.226;2024-02-14T06:20:28;9.80;99.90
18894;DHT22;9579;49.488;8.226;2024-02-14T06:23:16;9.60;99.90
18894;DHT22;9579;49.488;8.226;2024-02-14T06:26:03;10.70;99.90
18894;DHT22;9579;49.488;8.226;2024-02-14T06:28:51;8.90;99.90
18894;DHT22;9579;49.488;8.226;2024-02-14T06:31:43;9.90;99.90
18894;DHT22;9579;49.488;8.226;2024-02-14T06:34:30;11.50;99.90
18894;DHT22;9579;49.488;8.226;2024-02-14T06:37:17;9.80;99.90
18894;DHT22;9579;49.488;8.226;2024-02-14T06:40:05;9.80;99.90
18894;DHT22;9579;49.488;8.226;2024-02-14T06:42:54;9.90;99.90
18894;DHT22;9579;49.488;8.226;2024-02-14T06:45:41;10.10;99.90
18894;DHT22;9579;49.488;8.226;2024-02-14T06:48:30;9.90;99.90
18894;DHT22;9579;49.488;8.226;2024-02-14T06:51:17;11.20;99.90
18894;DHT22;9579;49.488;8.226;2024-02-14T06:54:06;10.10;99.90
18894;DHT22;9579;49.488;8.226;2024-02-14T06:56:53;10.10;99.90
18894;DHT22;9579;49.488;8.226;2024-02-14T06:59:41;10.90;99.90
18894;DHT22;9579;49.488;8.226;2024-02-14T07:02:28;11.30;99.90
18894;DHT22;9579;49.488;8.226;2024-02-14T07:05:16;10.50;99.90
18894;DHT22;9579;49.488;8.226;2024-02-14T07:08:04;10.90;99.90
18894;DHT22;9579;49.488;8.226;2024-02-14T07:10:51;10.40;99.90
18894;DHT22;9579;49.488;8.226;2024-02-14T07:13:38;10.40;99.90
18894;DHT22;9579;49.488;8.226;2024-02-14T07:16:25;10.40;99.90
18894;DHT22;9579;49.488;8.226;2024-02-14T07:19:12;11.50;99.90
18894;DHT22;9579;49.488;8.226;2024-02-14T07:22:00;11.50;99.90
18894;DHT22;9579;49.488;8.226;2024-02-14T07:24:47;10.50;99.90
18894;DHT22;9579;49.488;8.226;2024-02-14T07:27:35;10.50;99.90
18894;DHT22;9579;49.488;8.226;2024-02-14T07:30:22;10.50;99.90
18894;DHT22;9579;49.488;8.226;2024-02-14T07:33:09;11.80;99.90
18894;DHT22;9579;49.488;8.226;2024-02-14T07:35:56;10.70;99.90
18894;DHT22;9579;49.488;8.226;2024-02-14T07:38:44;11.50;99.90
18894;DHT22;9579;49.488;8.226;2024-02-14T07:41:31;11.70;99.90
18894;DHT22;9579;49.488;8.226;2024-02-14T07:44:18;11.90;99.90
18894;DHT22;9579;49.488;8.226;2024-02-14T07:47:05;11.00;99.90
18894;DHT22;9579;49.488;8.226;2024-02-14T07:49:52;10.80;99.90
18894;DHT22;9579;49.488;8.226;2024-02-14T07:52:41;10.70;99.90
18894;DHT22;9579;49.488;8.226;2024-02-14T07:55:30;12.00;99.90
18894;DHT22;9579;49.488;8.226;2024-02-14T07:58:18;10.60;99.90
18894;DHT22;9579;49.488;8.226;2024-02-14T08:01:05;11.50;99.90
18894;DHT22;9579;49.488;8.226;2024-02-14T08:03:52;10.70;99.90
18894;DHT22;9579;49.488;8.226;2024-02-14T08:06:39;10.80;99.90
18894;DHT22;9579;49.488;8.226;2024-02-14T08:09:26;10.70;99.90
18894;DHT22;9579;49.488;8.226;2024-02-14T08:12:14;10.80;99.90
18894;DHT22;9579;49.488;8.226;2024-02-14T08:15:01;10.80;99.90
18894;DHT22;9579;49.488;8.226;2024-02-14T08:17:51;10.80;99.90
18894;DHT22;9579;49.488;8.226;2024-02-14T08:20:41;10.90;99.90
18894;DHT22;9579;49.488;8.226;2024-02-14T08:23:33;11.80;99.90
18894;DHT22;9579;49.488;8.226;2024-02-14T08:26:27;11.10;99.90
18894;DHT22;9579;49.488;8.226;2024-02-14T08:29:17;12.00;99.90
18894;DHT22;9579;49.488;8.226;2024-02-14T08:32:06;10.90;99.90
18894;DHT22;9579;49.488;8.226;2024-02-14T08:34:53;11.40;99.90
18894;DHT22;9579;49.488;8.226;2024-02-14T08:37:44;11.30;99.90
18894;DHT22;9579;49.488;8.226;2024-02-14T08:40:41;11.30;99.90
18894;DHT22;9579;49.488;8.226;2024-02-14T08:43:28;10.90;99.90
18894;DHT22;9579;49.488;8.226;2024-02-14T08:46:18;12.20;99.90
18894;DHT22;9579;49.488;8.226;2024-02-14T08:49:05;11.60;99.90
18894;DHT22;9579;49.488;8.226;2024-02-14T08:51:54;11.40;99.90
18894;DHT22;9579;49.488;8.226;2024-02-14T08:54:41;12.00;99.90
18894;DHT22;9579;49.488;8.226;2024-02-14T08:57:56;11.20;99.90
18894;DHT22;9579;49.488;8.226;2024-02-14T09:00:46;11.50;99.90
18894;DHT22;9579;49.488;8.226;2024-02-14T09:03:34;12.40;99.90
18894;DHT22;9579;49.488;8.226;2024-02-14T09:06:22;12.60;99.90
18894;DHT22;9579;49.488;8.226;2024-02-14T09:09:09;13.50;99.90
18894;DHT22;9579;49.488;8.226;2024-02-14T09:11:57;11.80;99.90
18894;DHT22;9579;49.488;8.226;2024-02-14T09:14:48;13.30;99.90
18894;DHT22;9579;49.488;8.226;2024-02-14T09:17:35;12.10;99.90
18894;DHT22;9579;49.488;8.226;2024-02-14T09:20:27;13.30;99.90
18894;DHT22;9579;49.488;8.226;2024-02-14T09:23:16;12.20;99.90
18894;DHT22;9579;49.488;8.226;2024-02-14T09:26:06;12.20;99.90
18894;DHT22;9579;49.488;8.226;2024-02-14T09:33:57;12.10;99.90
18894;DHT22;9579;49.488;8.226;2024-02-14T09:36:51;13.00;99.90
18894;DHT22;9579;49.488;8.226;2024-02-14T09:39:43;11.60;99.90
18894;DHT22;9579;49.488;8.226;2024-02-14T09:42:37;11.90;99.90
18894;DHT22;9579;49.488;8.226;2024-02-14T09:45:30;11.80;99.90
18894;DHT22;9579;49.488;8.226;2024-02-14T09:48:20;12.10;99.90
18894;DHT22;9579;49.488;8.226;2024-02-14T09:51:30;11.30;99.90
18894;DHT22;9579;49.488;8.226;2024-02-14T11:08:31;12.30;99.90
18894;DHT22;9579;49.488;8.226;2024-02-14T11:11:28;13.20;99.90
18894;DHT22;9579;49.488;8.226;2024-02-14T11:14:29;13.00;99.90
18894;DHT22;9579;49.488;8.226;2024-02-14T11:23:01;13.00;99.90
18894;DHT22;9579;49.488;8.226;2024-02-14T11:32:11;13.20;99.90
18894;DHT22;9579;49.488;8.226;2024-02-14T11:34:59;13.00;99.90
18894;DHT22;9579;49.488;8.226;2024-02-14T11:37:51;14.20;99.90
18894;DHT22;9579;49.488;8.226;2024-02-14T11:40:41;13.40;99.90
18894;DHT22;9579;49.488;8.226;2024-02-14T11:43:29;13.70;99.90
18894;DHT22;9579;49.488;8.226;2024-02-14T11:46:17;13.20;99.90
18894;DHT22;9579;49.488;8.226;2024-02-14T11:49:08;13.70;99.90
18894;DHT22;9579;49.488;8.226;2024-02-14T11:52:05;13.20;99.90
18894;DHT22;9579;49.488;8.226;2024-02-14T11:55:04;13.40;99.90
18894;DHT22;9579;49.488;8.226;2024-02-14T12:09:03;13.00;99.90
18894;DHT22;9579;49.488;8.226;2024-02-14T12:12:21;13.90;99.90
18894;DHT22;9579;49.488;8.226;2024-02-14T12:15:11;13.70;99.90
18894;DHT22;9579;49.488;8.226;2024-02-14T12:18:06;13.80;99.90
18894;DHT22;9579;49.488;8.226;2024-02-14T12:21:21;14.60;99.90
18894;DHT22;9579;49.488;8.226;2024-02-14T12:28:18;14.00;99.90
18894;DHT22;9579;49.488;8.226;2024-02-14T12:32:03;13.80;99.90
18894;DHT22;9579;49.488;8.226;2024-02-14T12:35:30;13.90;99.90
18894;DHT22;9579;49.488;8.226;2024-02-14T12:38:42;13.90;99.90
18894;DHT22;9579;49.488;8.226;2024-02-14T12:41:36;14.00;99.90
18894;DHT22;9579;49.488;8.226;2024-02-14T12:44:44;14.20;99.90
18894;DHT22;9579;49.488;8.226;2024-02-14T12:48:02;14.40;99.90
18894;DHT22;9579;49.488;8.226;2024-02-14T12:57:44;14.60;99.90
18894;DHT22;9579;49.488;8.226;2024-02-14T13:00:31;14.60;99.90
18894;DHT22;9579;49.488;8.226;2024-02-14T13:03:18;15.20;99.90
18894;DHT22;9579;49.488;8.226;2024-02-14T13:06:05;14.60;99.90
18894;DHT22;9579;49.488;8.226;2024-02-14T13:08:52;15.10;99.90
18894;DHT22;9579;49.488;8.226;2024-02-14T13:11:39;14.80;99.90
18894;DHT22;9579;49.488;8.226;2024-02-14T13:14:28;14.80;99.90
18894;DHT22;9579;49.488;8.226;2024-02-14T13:17:18;14.70;99.90
18894;DHT22;9579;49.488;8.226;2024-02-14T13:20:06;15.10;99.90
18894;DHT22;9579;49.488;8.226;2024-02-14T13:22:54;14.50;99.90
18894;DHT22;9579;49.488;8.226;2024-02-14T13:25:41;15.10;99.90
18894;DHT22;9579;49.488;8.226;2024-02-14T13:28:28;14.40;99.90
18894;DHT22;9579;49.488;8.226;2024-02-14T13:31:17;14.50;99.90
18894;DHT22;9579;49.488;8.226;2024-02-14T13:34:04;14.50;99.90
18894;DHT22;9579;49.488;8.226;2024-02-14T13:36:53;14.90;99.90
18894;DHT22;9579;49.488;8.226;2024-02-14T13:39:48;14.40;99.90
18894;DHT22;9579;49.488;8.226;2024-02-14T13:42:45;14.40;99.90
18894;DHT22;9579;49.488;8.226;2024-02-14T13:45:59;14.40;99.90
18894;DHT22;9579;49.488;8.226;2024-02-14T13:52:52;14.30;99.90
18894;DHT22;9579;49.488;8.226;2024-02-14T13:55:46;13.80;99.90
18894;DHT22;9579;49.488;8.226;2024-02-14T13:58:54;13.90;99.90
18894;DHT22;9579;49.488;8.226;2024-02-14T14:01:54;12.80;99.90
18894;DHT22;9579;49.488;8.226;2024-02-14T14:04:47;13.80;99.90
18894;DHT22;9579;49.488;8.226;2024-02-14T14:08:15;12.90;99.90
18894;DHT22;9579;49.488;8.226;2024-02-14T14:11:05;13.40;99.90
18894;DHT22;9579;49.488;8.226;2024-02-14T14:14:05;13.60;99.90
18894;DHT22;9579;49.488;8.226;2024-02-14T14:17:13;14.00;99.90
18894;DHT22;9579;49.488;8.226;2024-02-14T14:20:10;14.80;99.90
18894;DHT22;9579;49.488;8.226;2024-02-14T14:23:08;13.10;99.90
18894;DHT22;9579;49.488;8.226;2024-02-14T14:26:02;13.80;99.90
18894;DHT22;9579;49.488;8.226;2024-02-14T14:28:53;13.00;99.90
18894;DHT22;9579;49.488;8.226;2024-02-14T14:31:48;12.40;99.90
18894;DHT22;9579;49.488;8.226;2024-02-14T14:34:38;13.70;99.90
18894;DHT22;9579;49.488;8.226;2024-02-14T14:37:30;13.70;99.90
18894;DHT22;9579;49.488;8.226;2024-02-14T14:40:30;13.00;99.90
18894;DHT22;9579;49.488;8.226;2024-02-14T14:43:24;13.60;99.90
18894;DHT22;9579;49.488;8.226;2024-02-14T14:46:27;14.00;99.90
18894;DHT22;9579;49.488;8.226;2024-02-14T14:49:26;13.60;99.90
18894;DHT22;9579;49.488;8.226;2024-02-14T14:52:28;13.70;99.90
18894;DHT22;9579;49.488;8.226;2024-02-14T14:55:20;13.60;99.90
18894;DHT22;9579;49.488;8.226;2024-02-14T15:05:40;13.20;99.90
18894;DHT22;9579;49.488;8.226;2024-02-14T15:09:15;13.80;99.90
18894;DHT22;9579;49.488;8.226;2024-02-14T15:53:57;13.60;99.90
18894;DHT22;9579;49.488;8.226;2024-02-14T15:57:04;12.50;99.90
18894;DHT22;9579;49.488;8.226;2024-02-14T16:00:08;13.50;99.90
18894;DHT22;9579;49.488;8.226;2024-02-14T16:03:14;13.00;99.90
18894;DHT22;9579;49.488;8.226;2024-02-14T16:06:24;13.50;99.90
18894;DHT22;9579;49.488;8.226;2024-02-14T16:11:57;13.50;99.90
18894;DHT22;9579;49.488;8.226;2024-02-14T16:15:24;11.60;99.90
18894;DHT22;9579;49.488;8.226;2024-02-14T16:18:51;11.70;99.90
18894;DHT22;9579;49.488;8.226;2024-02-14T16:21:46;12.60;99.90
18894;DHT22;9579;49.488;8.226;2024-02-14T16:24:46;13.40;99.90
18894;DHT22;9579;49.488;8.226;2024-02-14T16:27:45;14.40;99.90
18894;DHT22;9579;49.488;8.226;2024-02-14T16:33:27;13.30;99.90
18894;DHT22;9579;49.488;8.226;2024-02-14T16:36:41;13.40;99.90
18894;DHT22;9579;49.488;8.226;2024-02-14T16:39:48;12.40;99.90
18894;DHT22;9579;49.488;8.226;2024-02-14T16:42:44;13.20;99.90
18894;DHT22;9579;49.488;8.226;2024-02-14T16:46:20;13.30;99.90
18894;DHT22;9579;49.488;8.226;2024-02-14T16:49:21;12.20;99.90
18894;DHT22;9579;49.488;8.226;2024-02-14T16:52:57;13.20;99.90
18894;DHT22;9579;49.488;8.226;2024-02-14T16:56:05;14.30;99.90
18894;DHT22;9579;49.488;8.226;2024-02-14T16:59:16;13.20;99.90
18894;DHT22;9579;49.488;8.226;2024-02-14T17:04:51;13.30;99.90
18894;DHT22;9579;49.488;8.226;2024-02-14T17:19:53;13.20;99.90
18894;DHT22;9579;49.488;8.226;2024-02-14T17:28:05;13.30;99.90
18894;DHT22;9579;49.488;8.226;2024-02-14T17:30:56;13.30;99.90
18894;DHT22;9579;49.488;8.226;2024-02-14T17:34:22;13.30;99.90
18894;DHT22;9579;49.488;8.226;2024-02-14T17:37:53;13.60;99.90
18894;DHT22;9579;49.488;8.226;2024-02-14T17:57:26;14.20;99.90
18894;DHT22;9579;49.488;8.226;2024-02-14T18:05:36;13.30;99.90
18894;DHT22;9579;49.488;8.226;2024-02-14T18:08:33;12.90;99.90
18894;DHT22;9579;49.488;8.226;2024-02-14T18:11:47;13.50;99.90
18894;DHT22;9579;49.488;8.226;2024-02-14T18:33:37;13.70;99.90
18894;DHT22;9579;49.488;8.226;2024-02-14T18:37:13;13.60;99.90
18894;DHT22;9579;49.488;8.226;2024-02-14T18:40:18;13.60;99.90
18894;DHT22;9579;49.488;8.226;2024-02-14T18:44:00;13.50;99.90
18894;DHT22;9579;49.488;8.226;2024-02-14T18:47:02;13.30;99.90
18894;DHT22;9579;49.488;8.226;2024-02-14T18:50:01;13.50;99.90
18894;DHT22;9579;49.488;8.226;2024-02-14T18:52:53;13.50;99.90
18894;DHT22;9579;49.488;8.226;2024-02-14T18:55:54;13.70;99.90
18894;DHT22;9579;49.488;8.226;2024-02-14T18:58:43;13.70;99.90
18894;DHT22;9579;49.488;8.226;2024-02-14T19:01:31;13.70;99.90
18894;DHT22;9579;49.488;8.226;2024-02-14T19:04:28;13.70;99.90
18894;DHT22;9579;49.488;8.226;2024-02-14T19:07:41;13.60;99.90
18894;DHT22;9579;49.488;8.226;2024-02-14T19:10:35;13.60;99.90
18894;DHT22;9579;49.488;8.226;2024-02-14T19:13:27;13.50;99.90
18894;DHT22;9579;49.488;8.226;2024-02-14T19:16:22;13.60;99.90
18894;DHT22;9579;49.488;8.226;2024-02-14T19:19:21;13.70;99.90
18894;DHT22;9579;49.488;8.226;2024-02-14T19:22:20;13.70;99.90
18894;DHT22;9579;49.488;8.226;2024-02-14T19:25:15;14.30;99.90
18894;DHT22;9579;49.488;8.226;2024-02-14T19:28:16;14.10;99.90
18894;DHT22;9579;49.488;8.226;2024-02-14T19:31:07;13.80;99.90
18894;DHT22;9579;49.488;8.226;2024-02-14T19:34:05;13.70;99.90
18894;DHT22;9579;49.488;8.226;2024-02-14T19:37:11;13.70;99.90
18894;DHT22;9579;49.488;8.226;2024-02-14T19:40:08;13.70;99.90
18894;DHT22;9579;49.488;8.226;2024-02-14T19:43:21;13.60;99.90
18894;DHT22;9579;49.488;8.226;2024-02-14T19:46:19;13.80;99.90
18894;DHT22;9579;49.488;8.226;2024-02-14T19:56:24;13.70;99.90
18894;DHT22;9579;49.488;8.226;2024-02-14T19:59:48;13.60;99.90
18894;DHT22;9579;49.488;8.226;2024-02-14T20:02:42;13.80;99.90
18894;DHT22;9579;49.488;8.226;2024-02-14T20:05:32;13.60;99.90
18894;DHT22;9579;49.488;8.226;2024-02-14T20:08:52;13.70;99.90
18894;DHT22;9579;49.488;8.226;2024-02-14T20:12:07;13.70;99.90
18894;DHT22;9579;49.488;8.226;2024-02-14T20:15:02;13.80;99.90
18894;DHT22;9579;49.488;8.226;2024-02-14T20:17:55;13.60;99.90
18894;DHT22;9579;49.488;8.226;2024-02-14T20:21:10;15.20;99.90
18894;DHT22;9579;49.488;8.226;2024-02-14T20:24:15;13.70;99.90
18894;DHT22;9579;49.488;8.226;2024-02-14T20:27:27;13.50;99.90
18894;DHT22;9579;49.488;8.226;2024-02-14T20:54:52;13.20;99.90
18894;DHT22;9579;49.488;8.226;2024-02-14T20:57:56;11.60;99.90
18894;DHT22;9579;49.488;8.226;2024-02-14T21:00:48;12.10;99.90
18894;DHT22;9579;49.488;8.226;2024-02-14T21:03:42;13.00;99.90
18894;DHT22;9579;49.488;8.226;2024-02-14T21:06:48;11.40;99.90
18894;DHT22;9579;49.488;8.226;2024-02-14T21:15:39;13.30;99.90
18894;DHT22;9579;49.488;8.226;2024-02-14T21:19:06;12.70;99.90
18894;DHT22;9579;49.488;8.226;2024-02-14T21:23:00;14.70;99.90
18894;DHT22;9579;49.488;8.226;2024-02-14T21:25:56;13.20;99.90
18894;DHT22;9579;49.488;8.226;2024-02-14T21:28:48;13.40;99.90
18894;DHT22;9579;49.488;8.226;2024-02-14T21:32:18;12.10;99.90
18894;DHT22;9579;49.488;8.226;2024-02-14T21:35:43;13.10;99.90
18894;DHT22;9579;49.488;8.226;2024-02-14T21:38:44;13.20;99.90
18894;DHT22;9579;49.488;8.226;2024-02-14T21:41:47;12.10;99.90
18894;DHT22;9579;49.488;8.226;2024-02-14T21:44:54;11.20;99.90
18894;DHT22;9579;49.488;8.226;2024-02-14T21:48:24;13.00;99.90
18894;DHT22;9579;49.488;8.226;2024-02-14T21:51:43;13.10;99.90
18894;DHT22;9579;49.488;8.226;2024-02-14T21:55:06;13.90;99.90
18894;DHT22;9579;49.488;8.226;2024-02-14T22:01:43;13.10;99.90
18894;DHT22;9579;49.488;8.226;2024-02-14T22:04:32;13.10;99.90
18894;DHT22;9579;49.488;8.226;2024-02-14T22:07:36;13.20;99.90
18894;DHT22;9579;49.488;8.226;2024-02-14T22:10:58;13.10;99.90
18894;DHT22;9579;49.488;8.226;2024-02-14T22:14:15;14.20;99.90
18894;DHT22;9579;49.488;8.226;2024-02-14T22:17:18;13.10;99.90
18894;DHT22;9579;49.488;8.226;2024-02-14T22:20:48;13.10;99.90
18894;DHT22;9579;49.488;8.226;2024-02-14T22:35:12;12.10;99.90
18894;DHT22;9579;49.488;8.226;2024-02-14T22:38:46;13.10;99.90
18894;DHT22;9579;49.488;8.226;2024-02-14T22:42:14;12.10;99.90
18894;DHT22;9579;49.488;8.226;2024-02-14T22:45:32;12.90;99.90
18894;DHT22;9579;49.488;8.226;2024-02-14T22:48:41;13.00;99.90
18894;DHT22;9579;49.488;8.226;2024-02-14T22:58:51;13.10;99.90
18894;DHT22;9579;49.488;8.226;2024-02-14T23:02:12;13.10;99.90
18894;DHT22;9579;49.488;8.226;2024-02-14T23:05:08;13.10;99.90
18894;DHT22;9579;49.488;8.226;2024-02-14T23:08:17;13.00;99.90
18894;DHT22;9579;49.488;8.226;2024-02-14T23:11:07;12.80;99.90
18894;DHT22;9579;49.488;8.226;2024-02-14T23:17:02;13.00;99.90
18894;DHT22;9579;49.488;8.226;2024-02-14T23:20:06;12.90;99.90
18894;DHT22;9579;49.488;8.226;2024-02-14T23:23:00;13.10;99.90
18894;DHT22;9579;49.488;8.226;2024-02-14T23:25:52;12.00;99.90
18894;DHT22;9579;49.488;8.226;2024-02-14T23:28:47;13.80;99.90
18894;DHT22;9579;49.488;8.226;2024-02-14T23:31:46;11.90;99.90
18894;DHT22;9579;49.488;8.226;2024-02-14T23:34:44;12.80;99.90
18894;DHT22;9579;49.488;8.226;2024-02-14T23:37:40;12.90;99.90
18894;DHT22;9579;49.488;8.226;2024-02-14T23:40:47;12.90;99.90
18894;DHT22;9579;49.488;8.226;2024-02-14T23:43:46;11.30;99.90
18894;DHT22;9579;49.488;8.226;2024-02-14T23:47:12;13.40;99.90
18894;DHT22;9579;49.488;8.226;2024-02-14T23:50:21;12.90;99.90
18894;DHT22;9579;49.488;8.226;2024-02-14T23:53:12;12.00;99.90
18894;DHT22;9579;49.488;8.226;2024-02-14T23:56:13;12.60;99.90
18894;DHT22;9579;49.488;8.226;2024-02-14T23:59:03;12.60;99.90
